Terminal Aerodrome Forecast
Issued by NWS

Current Version | Previous Version | Text Only | Print | Product List | Glossary Off
Versions: 1 2 3 4 5 6 7 8 9 10 11 12 13 14 15 16 17 18 19 20 21 22 23 24 25 26 27 28 29 30

000
FTUS41 KRLX 201900 AAA
TAFCKB
TAF AMD
KCKB 201913Z 2019/2118 20010G20KT P6SM BKN080
     FM202200 22007KT P6SM SCT100
     FM210000 00000KT P6SM BKN110
     FM210400 00000KT P6SM BKN045
     FM210900 VRB03KT P6SM OVC025
     FM211100 27004KT P6SM OVC020
     FM211700 27008KT P6SM OVC025=

USA.gov is the U.S. government's official web portal to all federal, state and local government web resources and services.